METAR Data
IDs: Format: Raw Decoded Include TAF

Data at: 0644 UTC 07 Dec 2022

KONP 070635Z AUTO 00000KT 10SM OVC046 05/05 A3021 RMK AO2
KONP 070615Z AUTO 08003KT 10SM OVC048 05/05 A3021 RMK AO2
KONP 070555Z AUTO 00000KT 10SM OVC048 05/05 A3021 RMK AO2
KONP 070535Z AUTO 10SM OVC048 05/05 A3021 RMK AO2
KONP 070515Z AUTO 10004KT 10SM OVC048 05/04 A3021 RMK AO2
KONP 070455Z AUTO 00000KT 10SM OVC048 04/04 A3021 RMK AO2
KONP 070435Z AUTO 00000KT 10SM OVC048 04/03 A3021 RMK AO2
KONP 070415Z AUTO 00000KT 10SM OVC048 04/03 A3021 RMK AO2
KONP 070355Z AUTO 00000KT 10SM BKN048 03/03 A3020 RMK AO2
KONP 070335Z AUTO 00000KT 10SM BKN048 04/03 A3020 RMK AO2
KONP 070315Z AUTO 00000KT 10SM SCT017 OVC048 04/04 A3020 RMK AO2
KONP 070255Z AUTO 00000KT 10SM SCT017 OVC048 05/05 A3020 RMK AO2
KONP 070235Z AUTO 00000KT 10SM SCT017 OVC048 05/05 A3020 RMK AO2
KONP 070215Z AUTO 00000KT 10SM OVC048 05/05 A3019 RMK AO2
KONP 070155Z AUTO 00000KT 10SM OVC048 06/05 A3019 RMK AO2
KONP 070135Z AUTO 00000KT 10SM OVC048 06/06 RMK AO2
KONP 070115Z AUTO 00000KT 10SM OVC050 06/06 A3019 RMK AO2
KONP 070055Z AUTO 00000KT 10SM OVC050 07/06 A3019 RMK AO2
KONP 070035Z AUTO 00000KT 10SM OVC050 07/06 A3019 RMK AO2
KONP 070015Z AUTO 00000KT 10SM OVC050 08/06 A3018 RMK AO2
KONP 062355Z AUTO 00000KT 10SM OVC048 08/06 A3018 RMK AO2
KONP 062335Z AUTO 00000KT 10SM OVC048 08/06 A3018 RMK AO2
KONP 062315Z AUTO 29003KT 10SM OVC048 08/06 A3018 RMK AO2
KONP 062255Z AUTO 28003KT 10SM OVC048 08/06 A3018 RMK AO2
KONP 062235Z AUTO 29003KT 10SM OVC048 08/06 A3018 RMK AO2
KONP 062215Z AUTO 00000KT 10SM OVC048 08/06 A3018 RMK AO2
KONP 062155Z AUTO 27003KT 10SM OVC048 08/06 A3019 RMK AO2
KONP 062135Z AUTO 26003KT 10SM SCT039 BKN046 09/06 A3018 RMK AO2
KONP 062115Z AUTO 25006KT 10SM BKN039 OVC046 09/06 A3018 RMK AO2
KONP 062055Z AUTO 00000KT 10SM BKN046 10/05 A3018 RMK AO2
KONP 062035Z AUTO 22004KT 10SM OVC044 10/06 A3018 RMK AO2
KONP 062015Z AUTO 00000KT 10SM OVC044 09/06 A3018 RMK AO2
KONP 061955Z AUTO 00000KT 10SM OVC044 08/05 A3019 RMK AO2
KONP 061935Z AUTO 10SM OVC044 08/05 A3019 RMK AO2
KONP 061915Z AUTO 00000KT 10SM OVC044 08/05 A3019 RMK AO2
KONP 061855Z AUTO 08004KT 10SM OVC044 07/05 A3019 RMK AO2
KONP 061835Z AUTO 08003KT 10SM OVC044 06/04 A3019 RMK AO2
KONP 061815Z AUTO 07003KT 10SM OVC044 06/03 A3019 RMK AO2
KONP 061755Z AUTO 08005KT 10SM OVC044 05/03 A3018 RMK AO2
KONP 061735Z AUTO 10SM OVC044 05/03 A3018 RMK AO2
KONP 061715Z AUTO 08003KT 10SM OVC044 05/03 A3017 RMK AO2
KONP 061655Z AUTO 10004KT 10SM OVC044 05/03 A3016 RMK AO2
KONP 061635Z AUTO 09004KT 10SM SCT011 OVC044 04/03 A3016 RMK AO2
KONP 061615Z AUTO 09003KT 10SM SCT011 OVC044 04/03 A3016 RMK AO2
KONP 061555Z AUTO 08004KT 10SM OVC044 04/03 A3015 RMK AO2
KONP 061535Z AUTO 09003KT 10SM OVC044 04/02 A3015 RMK AO2
KONP 061515Z AUTO 09003KT 10SM OVC046 04/02 A3014 RMK AO2
KONP 061455Z AUTO 08005KT 10SM SCT009 OVC046 04/02 A3014 RMK AO2
KONP 061435Z AUTO 00000KT 10SM SCT009 OVC046 04/02 A3014 RMK AO2
KONP 061415Z AUTO 09003KT 10SM OVC046 04/02 A3013 RMK AO2
KONP 061355Z AUTO 08004KT 10SM OVC046 04/02 A3013 RMK AO2
KONP 061335Z AUTO 10004KT 10SM OVC046 04/02 A3013 RMK AO2
KONP 061315Z AUTO 08003KT 10SM OVC046 04/02 A3012 RMK AO2
KONP 061255Z AUTO 08004KT 10SM SCT010 OVC048 04/03 A3012 RMK AO2
KONP 061235Z AUTO 08004KT 10SM OVC048 04/02 A3012 RMK AO2
KONP 061215Z AUTO 09003KT 10SM OVC048 04/02 A3012 RMK AO2
KONP 061155Z AUTO 08003KT 10SM OVC048 04/02 A3012 RMK AO2
KONP 061135Z AUTO 07004KT 10SM OVC048 04/02 A3012 RMK AO2
KONP 061115Z AUTO 09004KT 10SM OVC048 04/02 A3012 RMK AO2
KONP 061055Z AUTO 09004KT 10SM OVC048 04/03 A3012 RMK AO2
KONP 061035Z AUTO 09004KT 10SM SCT009 OVC048 04/03 A3012 RMK AO2
KONP 061015Z AUTO 09004KT 10SM BKN009 OVC048 04/03 A3012 RMK AO2
KONP 060955Z AUTO 08004KT 10SM BKN009 OVC048 04/03 A3011 RMK AO2
KONP 060935Z AUTO 10004KT 10SM OVC048 04/03 A3011 RMK AO2
KONP 060915Z AUTO 10005KT 10SM OVC048 05/03 A3011 RMK AO2
KONP 060855Z AUTO 10004KT 10SM OVC046 05/03 A3011 RMK AO2
KONP 060835Z AUTO 09004KT 10SM OVC046 05/03 A3011 RMK AO2
KONP 060815Z AUTO 08003KT 10SM OVC046 05/03 A3011 RMK AO2
KONP 060755Z AUTO 10003KT 10SM OVC046 05/03 A3010 RMK AO2
KONP 060735Z AUTO 09004KT 10SM OVC046 05/03 A3010 RMK AO2
KONP 060715Z AUTO 00000KT 10SM OVC046 05/03 A3010 RMK AO2
KONP 060655Z AUTO 10003KT 10SM OVC046 05/03 A3009 RMK AO2
KONP 060635Z AUTO 08004KT 10SM OVC046 05/03 A3009 RMK AO2
KONP 060615Z AUTO 08003KT 10SM OVC046 05/03 A3009 RMK AO2
KONP 060555Z AUTO 00000KT 10SM OVC046 05/03 A3008 RMK AO2
KONP 060535Z AUTO 08005KT 10SM OVC046 05/03 A3008 RMK AO2
KONP 060515Z AUTO 00000KT 10SM OVC046 05/03 A3008 RMK AO2
KONP 060455Z AUTO 00000KT 10SM OVC046 05/03 A3007 RMK AO2
KONP 060435Z AUTO 09004KT 10SM OVC046 05/03 A3007 RMK AO2
KONP 060415Z AUTO 09003KT 10SM OVC046 05/03 A3006 RMK AO2
KONP 060355Z AUTO 09006KT 10SM OVC044 05/03 A3006 RMK AO2
KONP 060335Z AUTO 10SM OVC042 06/03 A3006 RMK AO2
KONP 060315Z AUTO 09005KT 10SM OVC042 06/04 A3005 RMK AO2
KONP 060255Z AUTO 09004KT 10SM OVC042 06/04 A3004 RMK AO2
KONP 060235Z AUTO 10SM OVC042 06/05 A3004 RMK AO2
KONP 060215Z AUTO 08003KT 10SM OVC042 06/05 A3004 RMK AO2
KONP 060155Z AUTO 10004KT 10SM OVC042 06/05 A3004 RMK AO2
KONP 060135Z AUTO 00000KT 10SM OVC042 07/06 A3004 RMK AO2
KONP 060115Z AUTO 00000KT 10SM OVC042 07/06 A3004 RMK AO2
KONP 060055Z AUTO 00000KT 10SM OVC042 07/06 A3003 RMK AO2
KONP 060035Z AUTO 00000KT 10SM OVC042 07/06 A3003 RMK AO2
KONP 060015Z AUTO 00000KT 10SM OVC042 07/06 A3003 RMK AO2
KONP 052355Z AUTO 00000KT 10SM OVC042 08/06 A3003 RMK AO2
KONP 052335Z AUTO 00000KT 10SM OVC042 08/05 A3003 RMK AO2
KONP 052315Z AUTO 00000KT 10SM OVC042 08/05 A3002 RMK AO2
KONP 052255Z AUTO 00000KT 10SM OVC042 08/05 A3001 RMK AO2
KONP 052235Z AUTO 00000KT 10SM OVC044 08/05 A3001 RMK AO2
KONP 052215Z AUTO 00000KT 10SM OVC046 08/05 A3001 RMK AO2
KONP 052155Z AUTO 00000KT 10SM OVC048 08/05 A3001 RMK AO2
KONP 052135Z AUTO 24003KT 10SM SCT050 08/04 A3001 RMK AO2
KONP 052115Z AUTO 25003KT 10SM CLR 09/04 A3001 RMK AO2
KONP 052055Z AUTO 26003KT 10SM SCT042 10/05 A3001 RMK AO2
KONP 052035Z AUTO 00000KT 10SM CLR 09/05 A3001 RMK AO2
KONP 052015Z AUTO 00000KT 10SM CLR 08/04 A3001 RMK AO2
KONP 051955Z AUTO 09004KT 10SM CLR 09/05 A3001 RMK AO2
KONP 051935Z AUTO 08005KT 10SM CLR 08/05 A3001 RMK AO2
KONP 051915Z AUTO 10006KT 10SM CLR 07/05 A3001 RMK AO2
KONP 051855Z AUTO 08009KT 10SM CLR 07/04 A3001 RMK AO2